createdAt,value
2023-05-05T00:01:04.124Z,91.44
2023-05-05T00:03:30.912Z,93.30
2023-05-05T00:05:59.354Z,93.27
2023-05-05T00:08:26.588Z,94.77
2023-05-05T00:10:53.543Z,93.85
2023-05-05T00:13:21.432Z,93.79
2023-05-05T00:15:49.929Z,92.00
2023-05-05T00:18:18.001Z,95.12
2023-05-05T00:20:47.270Z,94.94
2023-05-05T00:23:17.330Z,95.15
2023-05-05T00:25:44.176Z,95.00
2023-05-05T00:28:12.131Z,93.75
2023-05-05T00:30:40.001Z,90.04
2023-05-05T00:33:06.804Z,91.19
2023-05-05T00:35:33.726Z,94.12
2023-05-05T00:38:00.817Z,95.44
2023-05-05T00:40:27.716Z,95.94
2023-05-05T00:42:54.386Z,95.21
2023-05-05T00:45:21.232Z,93.59
2023-05-05T00:47:54.472Z,93.06
2023-05-05T00:50:25.719Z,92.17
2023-05-05T00:53:02.021Z,96.67
2023-05-05T00:55:29.912Z,100.00
2023-05-05T00:58:01.891Z,100.00
2023-05-05T01:00:29.102Z,98.28
2023-05-05T01:02:56.232Z,93.62
2023-05-05T01:05:24.310Z,98.21
2023-05-05T01:08:27.533Z,98.16
2023-05-05T01:11:17.900Z,98.11
2023-05-05T01:14:13.791Z,98.39
2023-05-05T01:16:59.020Z,98.61
2023-05-05T01:19:46.653Z,99.83
2023-05-05T01:22:17.560Z,98.71
2023-05-05T01:24:59.288Z,98.34
2023-05-05T01:27:44.835Z,98.81
2023-05-05T01:30:27.276Z,99.02
2023-05-05T01:33:01.568Z,99.05
2023-05-05T01:35:33.052Z,100.00
2023-05-05T01:38:22.290Z,100.00
2023-05-05T01:41:03.824Z,100.00
2023-05-05T01:43:33.803Z,100.00
2023-05-05T01:46:02.454Z,100.00
2023-05-05T01:48:33.515Z,100.00
2023-05-05T01:51:04.132Z,100.00
2023-05-05T01:53:32.606Z,100.00
2023-05-05T01:55:59.660Z,100.00
2023-05-05T01:58:28.461Z,100.00
2023-05-05T02:00:57.581Z,100.00
2023-05-05T02:03:25.810Z,100.00
2023-05-05T02:05:53.869Z,100.00
2023-05-05T02:08:21.767Z,100.00
2023-05-05T02:10:50.875Z,100.00
2023-05-05T02:13:20.345Z,100.00
2023-05-05T02:15:47.447Z,100.00
2023-05-05T02:18:15.811Z,100.00
2023-05-05T02:20:43.087Z,100.00
2023-05-05T02:23:10.164Z,100.00
2023-05-05T02:25:45.925Z,100.00
2023-05-05T02:28:20.387Z,100.00
2023-05-05T02:31:00.913Z,100.00
2023-05-05T02:33:32.629Z,100.00
2023-05-05T02:36:07.000Z,100.00
2023-05-05T02:38:35.214Z,100.00
2023-05-05T02:41:03.876Z,100.00
2023-05-05T02:43:32.069Z,100.00
2023-05-05T02:45:58.622Z,100.00
2023-05-05T02:48:25.542Z,100.00
2023-05-05T02:50:53.046Z,100.00
2023-05-05T02:53:24.765Z,100.00
2023-05-05T02:56:01.851Z,100.00
2023-05-05T02:58:42.775Z,100.00
2023-05-05T03:01:50.106Z,100.00
2023-05-05T03:04:31.956Z,100.00
2023-05-05T03:07:02.901Z,100.00
2023-05-05T03:09:57.919Z,100.00
2023-05-05T03:12:32.106Z,100.00
2023-05-05T03:15:02.187Z,100.00
2023-05-05T03:17:31.128Z,100.00
2023-05-05T03:19:58.431Z,100.00
2023-05-05T03:22:27.593Z,100.00
2023-05-05T03:24:54.165Z,100.00
2023-05-05T03:27:20.906Z,100.00
2023-05-05T03:29:47.501Z,100.00
2023-05-05T03:32:14.169Z,100.00
2023-05-05T03:34:40.764Z,100.00
2023-05-05T03:37:07.391Z,100.00
2023-05-05T03:39:33.977Z,100.00
2023-05-05T03:42:00.741Z,100.00
2023-05-05T03:44:27.405Z,100.00
2023-05-05T03:46:53.985Z,100.00
2023-05-05T03:49:20.557Z,100.00
2023-05-05T03:51:47.511Z,100.00
2023-05-05T03:54:14.107Z,100.00
2023-05-05T03:56:40.858Z,100.00
2023-05-05T03:59:08.734Z,100.00
2023-05-05T04:01:35.777Z,100.00
2023-05-05T04:04:02.719Z,100.00
2023-05-05T04:06:29.973Z,100.00
2023-05-05T04:08:57.057Z,100.00
2023-05-05T04:11:23.874Z,100.00
2023-05-05T04:13:51.068Z,100.00
2023-05-05T04:16:17.737Z,100.00
2023-05-05T04:18:44.421Z,100.00
2023-05-05T04:21:11.031Z,100.00
2023-05-05T04:23:37.571Z,100.00
2023-05-05T04:26:04.192Z,100.00
2023-05-05T04:28:30.800Z,100.00
2023-05-05T04:30:57.554Z,100.00
2023-05-05T04:33:24.190Z,100.00
2023-05-05T04:35:51.076Z,100.00
2023-05-05T04:38:20.460Z,100.00
2023-05-05T04:40:47.146Z,100.00
2023-05-05T04:43:14.132Z,100.00
2023-05-05T04:45:40.669Z,100.00
2023-05-05T04:48:07.290Z,100.00
2023-05-05T04:50:33.867Z,100.00
2023-05-05T04:53:00.495Z,100.00
2023-05-05T04:55:28.022Z,100.00
2023-05-05T04:57:54.585Z,100.00
2023-05-05T05:00:21.717Z,100.00
2023-05-05T05:02:48.346Z,100.00
2023-05-05T05:05:14.975Z,100.00
2023-05-05T05:07:41.571Z,100.00
2023-05-05T05:10:08.817Z,100.00
2023-05-05T05:12:35.653Z,100.00
2023-05-05T05:15:02.289Z,100.00
2023-05-05T05:17:30.629Z,100.00
2023-05-05T05:19:59.219Z,100.00
2023-05-05T05:22:25.832Z,100.00
2023-05-05T05:24:52.755Z,100.00
2023-05-05T05:27:19.448Z,100.00
2023-05-05T05:29:46.023Z,100.00
2023-05-05T05:32:12.893Z,100.00
2023-05-05T05:34:39.516Z,100.00
2023-05-05T05:37:06.188Z,100.00
2023-05-05T05:39:32.779Z,100.00
2023-05-05T05:41:59.381Z,100.00
2023-05-05T05:44:25.972Z,100.00
2023-05-05T05:46:53.278Z,100.00
2023-05-05T05:49:19.835Z,100.00
2023-05-05T05:51:46.429Z,100.00
2023-05-05T05:54:13.034Z,100.00
2023-05-05T05:56:39.619Z,100.00
2023-05-05T05:59:10.074Z,100.00
2023-05-05T06:01:37.011Z,100.00
2023-05-05T06:04:03.866Z,100.00
2023-05-05T06:06:30.501Z,100.00
2023-05-05T06:08:57.140Z,100.00
2023-05-05T06:11:23.799Z,100.00
2023-05-05T06:13:50.398Z,100.00
2023-05-05T06:16:17.181Z,100.00
2023-05-05T06:18:43.848Z,100.00
2023-05-05T06:21:13.335Z,100.00
2023-05-05T06:23:40.894Z,100.00
2023-05-05T06:26:07.488Z,100.00
2023-05-05T06:28:34.093Z,100.00
2023-05-05T06:31:00.814Z,100.00
2023-05-05T06:33:27.494Z,100.00
2023-05-05T06:35:54.386Z,100.00
2023-05-05T06:38:21.289Z,100.00
2023-05-05T06:40:49.650Z,100.00
2023-05-05T06:43:17.986Z,100.00
2023-05-05T06:45:44.645Z,100.00
2023-05-05T06:48:11.222Z,100.00
2023-05-05T06:50:38.052Z,100.00
2023-05-05T06:53:05.171Z,100.00
2023-05-05T06:55:32.483Z,100.00
2023-05-05T06:57:59.249Z,100.00
2023-05-05T07:00:25.939Z,100.00
2023-05-05T07:02:52.553Z,100.00
2023-05-05T07:05:20.190Z,99.23
2023-05-05T07:07:54.359Z,100.00
2023-05-05T07:10:22.575Z,96.50
2023-05-05T07:12:49.749Z,97.09
2023-05-05T07:15:27.993Z,95.87
2023-05-05T07:17:56.670Z,90.67
2023-05-05T07:20:23.618Z,93.51
2023-05-05T07:22:50.355Z,97.05
2023-05-05T07:25:17.202Z,94.81
2023-05-05T07:27:43.976Z,88.24
2023-05-05T07:30:15.391Z,89.61
2023-05-05T07:32:44.560Z,84.74
2023-05-05T07:35:11.413Z,84.18
2023-05-05T07:37:38.075Z,88.68
2023-05-05T07:40:05.231Z,86.46
2023-05-05T07:42:31.834Z,89.23
2023-05-05T07:44:58.751Z,82.11
2023-05-05T07:47:25.611Z,82.43
2023-05-05T07:49:52.215Z,83.88
2023-05-05T07:52:27.378Z,86.41
2023-05-05T07:55:00.134Z,85.60
2023-05-05T07:57:26.794Z,85.69
2023-05-05T07:59:53.490Z,85.05
2023-05-05T08:02:22.789Z,84.13
2023-05-05T08:04:51.152Z,84.92
2023-05-05T08:07:18.106Z,83.25
2023-05-05T08:09:44.721Z,84.49
2023-05-05T08:12:12.395Z,85.81
2023-05-05T08:14:40.374Z,84.07
2023-05-05T08:17:07.277Z,84.84
2023-05-05T08:19:34.001Z,85.09
2023-05-05T08:22:01.826Z,79.51
2023-05-05T08:24:29.003Z,82.42
2023-05-05T08:26:56.772Z,80.38
2023-05-05T08:29:23.593Z,74.26
2023-05-05T08:31:50.453Z,76.12
2023-05-05T08:34:17.080Z,79.62
2023-05-05T08:36:43.761Z,70.04
2023-05-05T08:39:10.798Z,71.90
2023-05-05T08:41:39.120Z,73.97
2023-05-05T08:44:08.448Z,68.59
2023-05-05T08:46:36.299Z,68.41
2023-05-05T08:49:05.442Z,67.28
2023-05-05T08:51:41.162Z,70.39
2023-05-05T08:54:13.231Z,68.43
2023-05-05T08:56:43.754Z,68.36
2023-05-05T08:59:16.647Z,71.34
2023-05-05T09:01:44.296Z,72.05
2023-05-05T09:04:12.335Z,63.13
2023-05-05T09:06:39.093Z,62.20
2023-05-05T09:09:06.750Z,62.36
2023-05-05T09:11:34.576Z,65.88
2023-05-05T09:14:01.877Z,58.88
2023-05-05T09:16:28.596Z,65.57
2023-05-05T09:19:04.723Z,60.91
2023-05-05T09:21:32.465Z,63.58
2023-05-05T09:24:09.977Z,66.47
2023-05-05T09:26:46.322Z,58.89
2023-05-05T09:29:20.259Z,60.69
2023-05-05T09:32:09.023Z,59.05
2023-05-05T09:34:36.423Z,54.65
2023-05-05T09:37:03.455Z,54.60
2023-05-05T09:39:30.076Z,55.70
2023-05-05T09:41:56.854Z,57.28
2023-05-05T09:44:40.734Z,52.68
2023-05-05T09:47:18.185Z,54.20
2023-05-05T09:50:00.892Z,47.26
2023-05-05T09:52:28.228Z,51.80
2023-05-05T09:54:58.690Z,52.57
2023-05-05T09:57:27.270Z,44.09
2023-05-05T09:59:58.862Z,49.76
2023-05-05T10:02:36.880Z,51.38
2023-05-05T10:05:15.409Z,46.38
2023-05-05T10:07:47.992Z,52.61
2023-05-05T10:10:17.322Z,50.54
2023-05-05T10:12:47.761Z,50.63
2023-05-05T10:15:16.327Z,47.57
2023-05-05T10:18:02.283Z,46.56
2023-05-05T10:20:33.465Z,46.38
2023-05-05T10:23:05.633Z,46.29
2023-05-05T10:25:40.907Z,46.42
2023-05-05T10:28:13.715Z,45.14
2023-05-05T10:30:44.656Z,100.00
2023-05-05T10:35:53.918Z,100.00
2023-05-05T10:38:24.122Z,100.00
2023-05-05T10:40:52.875Z,100.00
2023-05-05T10:43:19.765Z,100.00
2023-05-05T10:45:47.170Z,100.00
2023-05-05T10:48:25.914Z,100.00
2023-05-05T10:51:03.490Z,100.00
2023-05-05T10:53:38.133Z,100.00
2023-05-05T10:56:26.940Z,43.62
2023-05-05T10:59:00.004Z,45.33
2023-05-05T11:01:32.645Z,44.10
2023-05-05T11:04:20.240Z,46.27
2023-05-05T11:07:11.606Z,43.67
2023-05-05T11:10:01.697Z,43.32
2023-05-05T11:12:32.686Z,47.54
2023-05-05T11:15:24.359Z,40.78
2023-05-05T11:17:51.155Z,44.29
2023-05-05T11:20:39.883Z,45.72
2023-05-05T11:23:08.076Z,45.67
2023-05-05T11:25:35.023Z,44.55
2023-05-05T11:28:11.250Z,41.79
2023-05-05T11:30:59.505Z,45.54
2023-05-05T11:33:38.212Z,41.42
2023-05-05T11:36:14.183Z,43.71
2023-05-05T11:39:04.971Z,41.96
2023-05-05T11:41:34.152Z,40.99
2023-05-05T11:44:20.942Z,45.33
2023-05-05T11:46:57.731Z,43.94
2023-05-05T11:49:34.125Z,41.19
2023-05-05T11:52:09.099Z,41.85
2023-05-05T11:54:47.736Z,46.60
2023-05-05T11:57:15.488Z,46.20
2023-05-05T12:00:02.411Z,46.34
2023-05-05T12:02:30.199Z,49.99
2023-05-05T12:04:59.097Z,51.58
2023-05-05T12:07:27.477Z,47.22
2023-05-05T12:09:55.419Z,46.07
2023-05-05T12:12:35.855Z,46.79
2023-05-05T12:15:04.546Z,45.03
2023-05-05T12:17:46.095Z,46.63
2023-05-05T12:20:14.323Z,47.76
2023-05-05T12:22:42.400Z,47.18
2023-05-05T12:25:09.871Z,46.33
2023-05-05T12:27:36.631Z,50.47
2023-05-05T12:30:18.875Z,50.13
2023-05-05T12:32:46.069Z,47.64
2023-05-05T12:35:14.113Z,48.03
2023-05-05T12:37:45.535Z,48.52
2023-05-05T12:40:49.003Z,47.47
2023-05-05T12:43:31.955Z,47.35
2023-05-05T12:46:12.385Z,49.48
2023-05-05T12:48:46.335Z,50.95
2023-05-05T12:51:18.733Z,52.22
2023-05-05T12:53:47.486Z,51.63
2023-05-05T12:56:33.810Z,53.85
2023-05-05T12:59:02.210Z,52.55
2023-05-05T13:01:29.900Z,48.15
2023-05-05T13:04:11.841Z,50.25
2023-05-05T13:06:46.070Z,52.72
2023-05-05T13:09:27.088Z,52.53
2023-05-05T13:11:54.793Z,51.33
2023-05-05T13:14:23.111Z,52.75
2023-05-05T13:16:50.573Z,55.09
2023-05-05T13:19:17.272Z,56.52
2023-05-05T13:21:43.846Z,59.22
2023-05-05T13:24:23.055Z,59.45
2023-05-05T13:26:55.876Z,59.75
2023-05-05T13:29:28.371Z,61.07
2023-05-05T13:31:58.861Z,60.70
2023-05-05T13:34:25.862Z,62.87
2023-05-05T13:36:52.682Z,64.75
2023-05-05T13:39:20.177Z,63.78
2023-05-05T13:41:47.012Z,69.14
2023-05-05T13:44:14.082Z,73.74
2023-05-05T13:46:42.225Z,75.98
2023-05-05T13:49:09.238Z,75.87
2023-05-05T13:51:37.050Z,80.97
2023-05-05T13:54:04.142Z,79.39
2023-05-05T13:56:31.082Z,78.85
2023-05-05T13:58:57.722Z,82.09
2023-05-05T14:01:24.283Z,86.47
2023-05-05T14:03:51.017Z,92.76
2023-05-05T14:06:17.882Z,93.06
2023-05-05T14:08:44.497Z,95.01
2023-05-05T14:11:11.215Z,97.11
2023-05-05T14:13:38.227Z,99.27
2023-05-05T14:16:05.165Z,98.86
2023-05-05T14:18:31.803Z,97.69
2023-05-05T14:20:58.381Z,100.00
2023-05-05T14:23:24.991Z,98.48
2023-05-05T14:25:51.639Z,95.66
2023-05-05T14:28:18.345Z,94.84
2023-05-05T14:30:44.966Z,99.56
2023-05-05T14:33:11.581Z,99.24
2023-05-05T14:35:38.215Z,100.00
2023-05-05T14:38:04.941Z,96.08
2023-05-05T14:40:31.861Z,97.50
2023-05-05T14:42:58.655Z,96.07
2023-05-05T14:45:26.333Z,98.42
2023-05-05T14:47:53.588Z,97.05
2023-05-05T14:50:20.999Z,97.73
2023-05-05T14:52:48.952Z,95.54
2023-05-05T14:55:16.038Z,100.00
2023-05-05T14:57:42.649Z,97.76
2023-05-05T15:00:10.959Z,95.24
2023-05-05T15:02:37.964Z,96.48
2023-05-05T15:05:05.170Z,100.00
2023-05-05T15:07:31.829Z,99.60
2023-05-05T15:09:58.544Z,100.00
2023-05-05T15:12:26.133Z,98.10
2023-05-05T15:14:52.896Z,97.78
2023-05-05T15:17:19.694Z,94.02
2023-05-05T15:19:46.378Z,100.00
2023-05-05T15:22:13.101Z,100.00
2023-05-05T15:24:39.732Z,100.00
2023-05-05T15:27:06.475Z,100.00
2023-05-05T15:29:33.188Z,100.00
2023-05-05T15:32:01.356Z,95.70
2023-05-05T15:34:28.970Z,97.79
2023-05-05T15:36:56.211Z,97.63
2023-05-05T15:39:22.917Z,99.59
2023-05-05T15:41:50.650Z,98.85
2023-05-05T15:44:17.435Z,89.59
2023-05-05T15:46:44.234Z,96.14
2023-05-05T15:49:10.890Z,88.76
2023-05-05T15:51:40.951Z,88.84
2023-05-05T15:54:07.834Z,90.42
2023-05-05T15:56:34.424Z,87.71
2023-05-05T15:59:01.680Z,90.26
2023-05-05T16:01:28.458Z,88.61
2023-05-05T16:03:55.111Z,88.19
2023-05-05T16:06:22.164Z,88.96
2023-05-05T16:08:51.719Z,84.41
2023-05-05T16:11:22.477Z,88.61
2023-05-05T16:13:49.398Z,85.37
2023-05-05T16:16:16.139Z,86.83
2023-05-05T16:18:42.996Z,87.88
2023-05-05T16:21:09.902Z,90.68
2023-05-05T16:23:36.567Z,87.89
2023-05-05T16:26:04.140Z,90.30
2023-05-05T16:28:33.081Z,85.51
2023-05-05T16:31:01.116Z,88.21
2023-05-05T16:33:28.855Z,87.89
2023-05-05T16:35:56.019Z,89.69
2023-05-05T16:38:22.995Z,89.06
2023-05-05T16:40:49.724Z,86.71
2023-05-05T16:43:16.623Z,88.29
2023-05-05T16:45:43.621Z,85.55
2023-05-05T16:48:10.400Z,85.09
2023-05-05T16:50:37.027Z,86.49
2023-05-05T16:53:03.758Z,91.46
2023-05-05T16:55:30.542Z,92.13
2023-05-05T16:57:57.127Z,89.92
2023-05-05T17:00:23.922Z,92.50
2023-05-05T17:02:50.564Z,90.26
2023-05-05T17:05:17.683Z,92.26
2023-05-05T17:07:44.572Z,92.72
2023-05-05T17:10:11.205Z,90.00
2023-05-05T17:12:37.909Z,90.42
2023-05-05T17:15:05.045Z,92.05
2023-05-05T17:17:31.958Z,91.20
2023-05-05T17:19:59.303Z,91.02
2023-05-05T17:22:26.961Z,95.52
2023-05-05T17:24:53.564Z,94.01
2023-05-05T17:27:21.198Z,95.06
2023-05-05T17:29:47.908Z,96.07
2023-05-05T17:32:14.556Z,94.67
2023-05-05T17:34:41.471Z,91.20
2023-05-05T17:37:09.425Z,92.43
2023-05-05T17:39:36.168Z,91.24
2023-05-05T17:42:02.955Z,91.76
2023-05-05T17:44:32.926Z,93.08
2023-05-05T17:46:59.633Z,89.05
2023-05-05T17:49:26.329Z,88.46
2023-05-05T17:51:53.051Z,91.90
2023-05-05T17:54:19.692Z,90.08
2023-05-05T17:56:46.964Z,89.79
2023-05-05T17:59:13.817Z,91.09
2023-05-05T18:01:40.597Z,92.65
2023-05-05T18:04:07.376Z,91.93
2023-05-05T18:06:34.194Z,91.42
2023-05-05T18:09:00.882Z,92.47
2023-05-05T18:11:30.004Z,93.22
2023-05-05T18:13:56.995Z,93.96
2023-05-05T18:16:25.541Z,95.40
2023-05-05T18:18:52.429Z,94.10
2023-05-05T18:21:19.415Z,95.12
2023-05-05T18:23:46.235Z,96.61
2023-05-05T18:26:12.967Z,96.56
2023-05-05T18:28:39.677Z,96.43
2023-05-05T18:31:06.668Z,96.30
2023-05-05T18:33:33.612Z,96.82
2023-05-05T18:36:05.235Z,98.79
2023-05-05T18:38:32.834Z,97.55
2023-05-05T18:40:59.432Z,96.14
2023-05-05T18:43:26.083Z,97.85
2023-05-05T18:45:52.804Z,95.71
2023-05-05T18:48:19.492Z,97.49
2023-05-05T18:50:46.895Z,97.25
2023-05-05T18:53:15.137Z,96.43
2023-05-05T18:55:43.405Z,98.05
2023-05-05T18:58:10.564Z,97.86
2023-05-05T19:00:38.284Z,100.00
2023-05-05T19:03:04.946Z,100.00
2023-05-05T19:05:31.719Z,100.00
2023-05-05T19:07:58.505Z,100.00
2023-05-05T19:10:25.301Z,100.00
2023-05-05T19:12:52.070Z,100.00
2023-05-05T19:15:18.875Z,100.00
2023-05-05T19:17:45.563Z,100.00
2023-05-05T19:20:12.400Z,100.00
2023-05-05T19:22:39.815Z,100.00
2023-05-05T19:25:08.298Z,100.00
2023-05-05T19:27:36.995Z,100.00
2023-05-05T19:30:05.239Z,100.00
2023-05-05T19:32:31.959Z,100.00
2023-05-05T19:34:59.035Z,100.00
2023-05-05T19:37:26.687Z,100.00
2023-05-05T19:39:53.368Z,100.00
2023-05-05T19:42:20.560Z,100.00
2023-05-05T19:44:47.223Z,100.00
2023-05-05T19:47:15.270Z,100.00
2023-05-05T19:49:41.927Z,100.00
2023-05-05T19:52:08.500Z,100.00
2023-05-05T19:54:35.106Z,100.00
2023-05-05T19:57:03.404Z,100.00
2023-05-05T19:59:30.224Z,100.00
2023-05-05T20:01:56.927Z,100.00
2023-05-05T20:04:23.582Z,100.00
2023-05-05T20:06:50.979Z,100.00
2023-05-05T20:09:17.832Z,100.00
2023-05-05T20:11:44.454Z,100.00
2023-05-05T20:14:12.212Z,100.00
2023-05-05T20:16:39.651Z,100.00
2023-05-05T20:19:06.350Z,100.00
2023-05-05T20:21:34.749Z,100.00
2023-05-05T20:24:01.292Z,100.00
2023-05-05T20:26:28.580Z,100.00
2023-05-05T20:28:55.277Z,100.00
2023-05-05T20:31:22.354Z,100.00
2023-05-05T20:33:49.124Z,100.00
2023-05-05T20:36:17.864Z,100.00
2023-05-05T20:38:44.673Z,100.00
2023-05-05T20:41:11.775Z,100.00
2023-05-05T20:43:39.079Z,100.00
2023-05-05T20:46:05.907Z,100.00
2023-05-05T20:48:32.514Z,100.00
2023-05-05T20:51:02.660Z,100.00
2023-05-05T20:53:30.393Z,100.00
2023-05-05T20:55:58.887Z,100.00
2023-05-05T20:58:25.849Z,100.00
2023-05-05T21:00:52.463Z,100.00
2023-05-05T21:03:19.117Z,100.00
2023-05-05T21:05:46.163Z,100.00
2023-05-05T21:08:12.867Z,100.00
2023-05-05T21:10:39.737Z,100.00
2023-05-05T21:13:06.497Z,100.00
2023-05-05T21:15:37.244Z,100.00
2023-05-05T21:18:08.745Z,100.00
2023-05-05T21:20:35.888Z,100.00
2023-05-05T21:23:02.573Z,100.00
2023-05-05T21:25:30.942Z,100.00
2023-05-05T21:27:57.536Z,100.00
2023-05-05T21:30:24.196Z,100.00
2023-05-05T21:32:52.457Z,100.00
2023-05-05T21:35:19.169Z,100.00
2023-05-05T21:37:45.795Z,100.00
2023-05-05T21:40:14.209Z,100.00
2023-05-05T21:42:43.960Z,100.00
2023-05-05T21:45:12.048Z,100.00
2023-05-05T21:47:39.367Z,100.00
2023-05-05T21:50:06.636Z,100.00
2023-05-05T21:52:33.575Z,100.00
2023-05-05T21:55:00.224Z,100.00
2023-05-05T21:57:26.853Z,100.00
2023-05-05T21:59:53.481Z,100.00
2023-05-05T22:02:20.097Z,100.00
2023-05-05T22:04:48.620Z,100.00
2023-05-05T22:07:16.999Z,100.00
2023-05-05T22:09:43.708Z,100.00
2023-05-05T22:12:10.318Z,100.00
2023-05-05T22:14:37.173Z,100.00
2023-05-05T22:17:03.801Z,100.00
2023-05-05T22:19:31.986Z,100.00
2023-05-05T22:21:58.923Z,100.00
2023-05-05T22:24:25.753Z,100.00
2023-05-05T22:26:52.455Z,100.00
2023-05-05T22:29:20.893Z,100.00
2023-05-05T22:31:48.347Z,100.00
2023-05-05T22:34:15.216Z,100.00
2023-05-05T22:36:43.105Z,100.00
2023-05-05T22:39:09.915Z,100.00
2023-05-05T22:41:36.565Z,100.00
2023-05-05T22:44:03.146Z,100.00
2023-05-05T22:46:29.791Z,100.00
2023-05-05T22:48:56.506Z,100.00
2023-05-05T22:51:23.406Z,100.00
2023-05-05T22:53:49.992Z,100.00
2023-05-05T22:56:16.776Z,100.00
2023-05-05T22:58:43.399Z,100.00
2023-05-05T23:01:11.978Z,100.00
2023-05-05T23:03:38.601Z,100.00
2023-05-05T23:06:06.785Z,100.00
2023-05-05T23:08:35.290Z,100.00
2023-05-05T23:11:01.853Z,100.00
2023-05-05T23:13:28.412Z,100.00
2023-05-05T23:15:55.036Z,100.00
2023-05-05T23:18:21.575Z,100.00
2023-05-05T23:20:48.222Z,100.00
2023-05-05T23:23:15.227Z,100.00
2023-05-05T23:25:41.779Z,100.00
2023-05-05T23:28:08.300Z,100.00
2023-05-05T23:30:34.968Z,100.00
2023-05-05T23:33:01.558Z,100.00
2023-05-05T23:35:28.481Z,100.00
2023-05-05T23:37:55.224Z,100.00
2023-05-05T23:40:22.112Z,100.00
2023-05-05T23:42:48.721Z,100.00
2023-05-05T23:45:17.496Z,100.00
2023-05-05T23:47:47.162Z,100.00
2023-05-05T23:50:13.745Z,100.00
2023-05-05T23:52:41.803Z,100.00
2023-05-05T23:55:09.045Z,100.00
2023-05-05T23:57:37.965Z,100.00
